To NAV CANADA Home Page Login to a new session Search on AWWS site Feedback and Comments Disclaimer Vers la page française équivalente Tips FAQ What's new on the site To the Forecasts and Observations / NOTAM section To "File a Flight Plan" website Publications and other links Update of the User's profile FIC Telephone Numbers My Weather Data Folder Route Weather Data Regional Weather Data Local Weather Data To the Forecasts and Observations / NOTAM section
Request Generated 09/29/2016 at 16:54:27 UTC . Weather information available at that time is displayed.

METAR/TAF

WINDSOR/ON    

METAR CYQG 291600Z 35004KT 5SM -SHRA BR OVC020 15/15 A3017 RMK CU8
SLP218=
SPECI CYQG 291532Z 33006KT 5SM -SHRA BR FEW006 OVC023 15/14 A3016 RMK
SF1CU7 SLP217=
METAR CYQG 291500Z 01006KT 5SM -TSRA BR BKN026CB OVC080 14/14 A3016
RMK CB7AC1 CU EMBD SLP216=
METAR CYQG 291400Z 01006KT 7SM -SHRA BKN028 OVC080 14/13 A3014 RMK
CU7AC1 /R26/ SLP207=

TAF AMD CYQG 291609Z 2916/3012 01012KT P6SM OVC020 TEMPO 2916/2922
5SM -SHRA BR BKN008 OVC015
FM292200 06015G25KT 3SM -SHRA BR BKN005 OVC012
RMK NXT FCST BY 291800Z=
Your time UTC time
Weather data provided by Environment Canada and NAV CANADA